createdAt,value
2017-03-15T00:00:59.822Z,1022.81
2017-03-15T00:02:01.061Z,1022.86
2017-03-15T00:03:02.294Z,1022.83
2017-03-15T00:04:03.562Z,1022.82
2017-03-15T00:05:04.781Z,1022.87
2017-03-15T00:06:06.030Z,1022.83
2017-03-15T00:07:07.304Z,1022.84
2017-03-15T00:08:08.519Z,1022.88
2017-03-15T00:09:09.783Z,1022.96
2017-03-15T00:10:11.029Z,1022.9
2017-03-15T00:11:12.269Z,1022.85
2017-03-15T00:12:13.543Z,1022.82
2017-03-15T00:13:14.838Z,1022.78
2017-03-15T00:14:16.132Z,1022.76
2017-03-15T00:15:17.422Z,1022.81
2017-03-15T00:16:18.649Z,1022.81
2017-03-15T00:17:19.895Z,1022.79
2017-03-15T00:18:21.146Z,1022.74
2017-03-15T00:19:22.392Z,1022.78
2017-03-15T00:20:23.637Z,1022.78
2017-03-15T00:21:24.896Z,1022.82
2017-03-15T00:22:26.121Z,1022.85
2017-03-15T00:23:27.388Z,1022.87
2017-03-15T00:24:28.642Z,1022.9
2017-03-15T00:25:29.953Z,1022.85
2017-03-15T00:26:31.199Z,1022.83
2017-03-15T00:27:32.455Z,1022.83
2017-03-15T00:28:33.770Z,1022.79
2017-03-15T00:29:35.020Z,1022.82
2017-03-15T00:30:36.284Z,1022.78
2017-03-15T00:31:37.500Z,1022.75
2017-03-15T00:32:38.852Z,1022.75
2017-03-15T00:33:40.165Z,1022.79
2017-03-15T00:34:41.436Z,1022.75
2017-03-15T00:35:42.830Z,1022.8
2017-03-15T00:36:44.078Z,1022.85
2017-03-15T00:37:45.314Z,1022.84
2017-03-15T00:38:46.561Z,1022.91
2017-03-15T00:39:47.903Z,1022.91
2017-03-15T00:40:49.150Z,1022.91
2017-03-15T00:41:50.392Z,1022.94
2017-03-15T00:42:51.628Z,1022.96
2017-03-15T00:43:52.871Z,1022.97
2017-03-15T00:44:54.144Z,1022.89
2017-03-15T00:45:55.415Z,1022.88
2017-03-15T00:46:56.652Z,1022.83
2017-03-15T00:47:57.875Z,1022.76
2017-03-15T00:48:59.125Z,1022.79
2017-03-15T00:50:00.410Z,1022.77
2017-03-15T00:51:01.628Z,1022.82
2017-03-15T00:52:02.884Z,1022.83
2017-03-15T00:53:04.174Z,1022.84
2017-03-15T00:54:05.379Z,1022.87
2017-03-15T00:55:06.729Z,1022.85
2017-03-15T00:56:07.985Z,1022.81
2017-03-15T00:57:09.214Z,1022.84
2017-03-15T00:58:10.455Z,1022.81
2017-03-15T00:59:11.698Z,1022.79
2017-03-15T01:00:12.983Z,1022.77
2017-03-15T01:01:14.236Z,1022.84
2017-03-15T01:02:15.475Z,1022.87
2017-03-15T01:03:16.784Z,1022.83
2017-03-15T01:04:18.060Z,1022.81
2017-03-15T01:05:19.308Z,1022.77
2017-03-15T01:06:20.551Z,1022.8
2017-03-15T01:07:21.788Z,1022.76
2017-03-15T01:08:23.140Z,1022.77
2017-03-15T01:09:24.428Z,1022.78
2017-03-15T01:10:25.676Z,1022.79
2017-03-15T01:11:26.915Z,1022.75
2017-03-15T01:12:28.161Z,1022.79
2017-03-15T01:13:29.403Z,1022.84
2017-03-15T01:14:30.651Z,1022.82
2017-03-15T01:15:31.895Z,1022.85
2017-03-15T01:16:33.151Z,1022.82
2017-03-15T01:17:34.393Z,1022.81
2017-03-15T01:18:35.640Z,1022.83
2017-03-15T01:19:36.904Z,1022.8
2017-03-15T01:20:38.154Z,1022.83
2017-03-15T01:21:39.386Z,1022.87
2017-03-15T01:22:40.686Z,1022.87
2017-03-15T01:23:41.926Z,1022.87
2017-03-15T01:24:43.173Z,1022.86
2017-03-15T01:25:44.474Z,1022.83
2017-03-15T01:26:45.749Z,1022.88
2017-03-15T01:27:46.951Z,1022.87
2017-03-15T01:28:48.206Z,1022.85
2017-03-15T01:29:49.461Z,1022.84
2017-03-15T01:30:50.687Z,1022.81
2017-03-15T01:31:51.931Z,1022.85
2017-03-15T01:32:53.172Z,1022.84
2017-03-15T01:33:54.418Z,1022.88
2017-03-15T01:34:55.689Z,1022.83
2017-03-15T01:35:56.976Z,1022.87
2017-03-15T01:36:58.234Z,1022.86
2017-03-15T01:37:59.506Z,1022.93
2017-03-15T01:39:00.742Z,1022.88
2017-03-15T01:40:01.980Z,1022.86
2017-03-15T01:41:03.249Z,1022.93
2017-03-15T01:42:04.672Z,1022.9
2017-03-15T01:43:06.030Z,1022.91
2017-03-15T01:44:07.281Z,1022.87
2017-03-15T01:45:08.545Z,1022.83
2017-03-15T01:46:09.757Z,1022.76
2017-03-15T01:47:11.007Z,1022.73
2017-03-15T01:48:12.305Z,1022.73
2017-03-15T01:49:13.568Z,1022.8
2017-03-15T01:50:14.812Z,1022.79
2017-03-15T01:51:16.073Z,1022.85
2017-03-15T01:52:17.315Z,1022.79
2017-03-15T01:53:18.549Z,1022.79
2017-03-15T01:54:19.810Z,1022.73
2017-03-15T01:55:21.065Z,1022.71
2017-03-15T01:56:22.290Z,1022.72
2017-03-15T01:57:23.523Z,1022.64
2017-03-15T01:58:24.860Z,1022.63
2017-03-15T01:59:26.101Z,1022.61
2017-03-15T02:00:27.354Z,1022.63
2017-03-15T02:01:28.603Z,1022.66
2017-03-15T02:02:29.847Z,1022.59
2017-03-15T02:03:31.091Z,1022.62
2017-03-15T02:04:32.330Z,1022.61
2017-03-15T02:05:33.575Z,1022.61
2017-03-15T02:06:34.839Z,1022.64
2017-03-15T02:07:36.153Z,1022.64
2017-03-15T02:08:37.396Z,1022.58
2017-03-15T02:09:38.645Z,1022.57
2017-03-15T02:10:39.881Z,1022.59
2017-03-15T02:11:41.147Z,1022.56
2017-03-15T02:12:42.504Z,1022.55
2017-03-15T02:13:43.765Z,1022.57
2017-03-15T02:14:44.996Z,1022.58
2017-03-15T02:15:46.292Z,1022.57
2017-03-15T02:16:47.520Z,1022.61
2017-03-15T02:17:48.763Z,1022.64
2017-03-15T02:18:50.057Z,1022.69
2017-03-15T02:19:51.440Z,1022.69
2017-03-15T02:20:52.591Z,1022.69
2017-03-15T02:21:53.895Z,1022.69
2017-03-15T02:22:55.088Z,1022.66
2017-03-15T02:23:56.424Z,1022.74
2017-03-15T02:24:57.643Z,1022.7
2017-03-15T02:25:58.890Z,1022.72
2017-03-15T02:27:00.230Z,1022.74
2017-03-15T02:28:01.452Z,1022.79
2017-03-15T02:29:02.710Z,1022.8
2017-03-15T02:30:03.963Z,1022.79
2017-03-15T02:31:05.291Z,1022.76
2017-03-15T02:32:06.550Z,1022.75
2017-03-15T02:33:07.923Z,1022.72
2017-03-15T02:34:09.142Z,1022.74
2017-03-15T02:35:10.396Z,1022.65
2017-03-15T02:36:11.658Z,1022.63
2017-03-15T02:37:12.959Z,1022.61
2017-03-15T02:38:14.214Z,1022.59
2017-03-15T02:39:15.466Z,1022.58
2017-03-15T02:40:16.710Z,1022.57
2017-03-15T02:41:17.960Z,1022.65
2017-03-15T02:42:19.194Z,1022.68
2017-03-15T02:43:20.449Z,1022.68
2017-03-15T02:44:21.791Z,1022.63
2017-03-15T02:45:22.985Z,1022.61
2017-03-15T02:46:24.224Z,1022.62
2017-03-15T02:47:25.459Z,1022.63
2017-03-15T02:48:26.739Z,1022.6
2017-03-15T02:49:27.963Z,1022.62
2017-03-15T02:50:29.223Z,1022.62
2017-03-15T02:51:30.465Z,1022.53
2017-03-15T02:52:31.694Z,1022.58
2017-03-15T02:53:32.948Z,1022.59
2017-03-15T02:54:34.201Z,1022.57
2017-03-15T02:55:35.444Z,1022.57
2017-03-15T02:56:36.677Z,1022.6
2017-03-15T02:57:38.096Z,1022.62
2017-03-15T02:58:39.426Z,1022.59
2017-03-15T02:59:40.667Z,1022.56
2017-03-15T03:00:41.910Z,1022.58
2017-03-15T03:01:43.155Z,1022.58
2017-03-15T03:02:44.415Z,1022.59
2017-03-15T03:03:45.664Z,1022.57
2017-03-15T03:04:46.896Z,1022.55
2017-03-15T03:05:48.164Z,1022.49
2017-03-15T03:06:49.435Z,1022.47
2017-03-15T03:07:50.686Z,1022.49
2017-03-15T03:08:51.959Z,1022.46
2017-03-15T03:09:53.236Z,1022.5
2017-03-15T03:10:54.523Z,1022.48
2017-03-15T03:11:55.844Z,1022.51
2017-03-15T03:12:57.083Z,1022.48
2017-03-15T03:13:58.354Z,1022.5
2017-03-15T03:14:59.584Z,1022.52
2017-03-15T03:16:00.879Z,1022.55
2017-03-15T03:17:02.093Z,1022.57
2017-03-15T03:18:03.349Z,1022.58
2017-03-15T03:19:04.574Z,1022.59
2017-03-15T03:20:05.817Z,1022.6
2017-03-15T03:21:07.051Z,1022.59
2017-03-15T03:22:08.335Z,1022.62
2017-03-15T03:23:09.588Z,1022.63
2017-03-15T03:24:10.824Z,1022.54
2017-03-15T03:25:12.149Z,1022.56
2017-03-15T03:26:13.397Z,1022.58
2017-03-15T03:27:14.648Z,1022.64
2017-03-15T03:28:16.007Z,1022.66
2017-03-15T03:29:17.242Z,1022.69
2017-03-15T03:30:18.468Z,1022.7
2017-03-15T03:31:19.785Z,1022.77
2017-03-15T03:32:21.046Z,1022.78
2017-03-15T03:33:22.266Z,1022.83
2017-03-15T03:34:23.521Z,1022.78
2017-03-15T03:35:24.871Z,1022.86
2017-03-15T03:36:26.091Z,1022.83
2017-03-15T03:37:27.348Z,1022.84
2017-03-15T03:38:28.567Z,1022.9
2017-03-15T03:39:29.801Z,1022.87
2017-03-15T03:40:31.065Z,1022.84
2017-03-15T03:41:32.309Z,1022.9
2017-03-15T03:42:33.711Z,1022.91
2017-03-15T03:43:35.002Z,1022.91
2017-03-15T03:44:36.258Z,1022.91
2017-03-15T03:45:37.508Z,1022.91
2017-03-15T03:46:38.759Z,1022.88
2017-03-15T03:47:39.996Z,1022.93
2017-03-15T03:48:41.301Z,1022.98
2017-03-15T03:49:42.485Z,1023.04
2017-03-15T03:50:43.704Z,1023.05
2017-03-15T03:51:44.970Z,1023.1
2017-03-15T03:52:46.207Z,1023.09
2017-03-15T03:53:47.568Z,1023.08
2017-03-15T03:54:48.814Z,1023.06
2017-03-15T03:55:50.037Z,1023.04
2017-03-15T03:56:51.281Z,1022.99
2017-03-15T03:57:52.531Z,1022.98
2017-03-15T03:58:53.771Z,1022.98
2017-03-15T03:59:55.111Z,1023.04
2017-03-15T04:00:56.523Z,1023.05
2017-03-15T04:01:57.771Z,1023.13
2017-03-15T04:02:59.028Z,1023.14
2017-03-15T04:04:00.283Z,1023.2
2017-03-15T04:05:01.519Z,1023.19
2017-03-15T04:06:02.844Z,1023.19
2017-03-15T04:07:04.087Z,1023.14
2017-03-15T04:08:05.326Z,1023.07
2017-03-15T04:09:06.593Z,1023.01
2017-03-15T04:10:07.823Z,1022.99
2017-03-15T04:11:09.133Z,1023.03
2017-03-15T04:12:10.421Z,1023.06
2017-03-15T04:13:11.729Z,1023.09
2017-03-15T04:14:12.980Z,1023.15
2017-03-15T04:15:14.219Z,1023.21
2017-03-15T04:16:15.489Z,1023.21
2017-03-15T04:17:16.746Z,1023.22
2017-03-15T04:18:17.986Z,1023.18
2017-03-15T04:19:19.227Z,1023.24
2017-03-15T04:20:20.525Z,1023.2
2017-03-15T04:21:21.772Z,1023.22
2017-03-15T04:22:23.089Z,1023.17
2017-03-15T04:23:24.316Z,1023.17
2017-03-15T04:24:25.555Z,1023.16
2017-03-15T04:25:26.838Z,1023.16
2017-03-15T04:26:28.279Z,1023.17
2017-03-15T04:27:29.508Z,1023.16
2017-03-15T04:28:30.765Z,1023.19
2017-03-15T04:29:32.028Z,1023.2
2017-03-15T04:30:33.271Z,1023.22
2017-03-15T04:31:34.562Z,1023.19
2017-03-15T04:32:35.834Z,1023.25
2017-03-15T04:33:37.044Z,1023.27
2017-03-15T04:34:38.280Z,1023.22
2017-03-15T04:35:39.557Z,1023.21
2017-03-15T04:36:40.796Z,1023.19
2017-03-15T04:37:42.077Z,1023.19
2017-03-15T04:38:43.316Z,1023.18
2017-03-15T04:39:44.556Z,1023.17
2017-03-15T04:40:45.795Z,1023.22
2017-03-15T04:41:47.071Z,1023.2
2017-03-15T04:42:48.341Z,1023.23
2017-03-15T04:43:49.556Z,1023.24
2017-03-15T04:44:50.846Z,1023.27
2017-03-15T04:45:52.103Z,1023.26
2017-03-15T04:46:53.351Z,1023.26
2017-03-15T04:47:54.609Z,1023.23
2017-03-15T04:48:55.871Z,1023.21
2017-03-15T04:49:57.125Z,1023.17
2017-03-15T04:50:58.480Z,1023.16
2017-03-15T04:51:59.755Z,1023.1
2017-03-15T04:53:00.978Z,1023.13
2017-03-15T04:54:02.222Z,1023.08
2017-03-15T04:55:03.482Z,1023.09
2017-03-15T04:56:04.723Z,1023.12
2017-03-15T04:57:05.989Z,1023.1
2017-03-15T04:58:07.231Z,1023.14
2017-03-15T04:59:08.461Z,1023.17
2017-03-15T05:00:09.695Z,1023.16
2017-03-15T05:01:10.942Z,1023.2
2017-03-15T05:02:12.207Z,1023.24
2017-03-15T05:03:13.459Z,1023.26
2017-03-15T05:04:14.675Z,1023.26
2017-03-15T05:05:15.934Z,1023.25
2017-03-15T05:06:17.183Z,1023.23
2017-03-15T05:07:18.429Z,1023.26
2017-03-15T05:08:19.650Z,1023.26
2017-03-15T05:09:20.906Z,1023.25
2017-03-15T05:10:22.151Z,1023.26
2017-03-15T05:11:23.394Z,1023.27
2017-03-15T05:12:24.646Z,1023.3
2017-03-15T05:13:25.869Z,1023.27
2017-03-15T05:14:27.114Z,1023.28
2017-03-15T05:15:28.365Z,1023.27
2017-03-15T05:16:29.597Z,1023.25
2017-03-15T05:17:30.865Z,1023.22
2017-03-15T05:18:32.127Z,1023.24
2017-03-15T05:19:33.360Z,1023.25
2017-03-15T05:20:34.620Z,1023.26
2017-03-15T05:21:35.844Z,1023.25
2017-03-15T05:22:37.117Z,1023.25
2017-03-15T05:23:38.358Z,1023.23
2017-03-15T05:24:39.619Z,1023.24
2017-03-15T05:25:40.865Z,1023.2
2017-03-15T05:26:42.103Z,1023.22
2017-03-15T05:27:43.346Z,1023.24
2017-03-15T05:28:44.603Z,1023.23
2017-03-15T05:29:45.853Z,1023.24
2017-03-15T05:30:47.093Z,1023.25
2017-03-15T05:31:48.330Z,1023.32
2017-03-15T05:32:49.575Z,1023.36
2017-03-15T05:33:50.815Z,1023.34
2017-03-15T05:34:52.053Z,1023.32
2017-03-15T05:35:53.317Z,1023.35
2017-03-15T05:36:54.633Z,1023.28
2017-03-15T05:37:55.877Z,1023.26
2017-03-15T05:38:57.110Z,1023.3
2017-03-15T05:39:58.364Z,1023.27
2017-03-15T05:40:59.583Z,1023.25
2017-03-15T05:42:00.854Z,1023.25
2017-03-15T05:43:02.096Z,1023.27
2017-03-15T05:44:03.323Z,1023.34
2017-03-15T05:45:04.618Z,1023.35
2017-03-15T05:46:05.897Z,1023.31
2017-03-15T05:47:07.129Z,1023.35
2017-03-15T05:48:08.375Z,1023.39
2017-03-15T05:49:09.638Z,1023.41
2017-03-15T05:50:10.969Z,1023.41
2017-03-15T05:51:12.241Z,1023.46
2017-03-15T05:52:13.444Z,1023.43
2017-03-15T05:53:14.703Z,1023.46
2017-03-15T05:54:15.975Z,1023.48
2017-03-15T05:55:17.215Z,1023.46
2017-03-15T05:56:18.464Z,1023.44
2017-03-15T05:57:19.710Z,1023.49
2017-03-15T05:58:20.949Z,1023.48
2017-03-15T05:59:22.375Z,1023.49
2017-03-15T06:00:23.622Z,1023.47
2017-03-15T06:01:24.887Z,1023.46
2017-03-15T06:02:26.207Z,1023.43
2017-03-15T06:03:27.434Z,1023.44
2017-03-15T06:04:28.692Z,1023.48
2017-03-15T06:05:29.911Z,1023.53
2017-03-15T06:06:31.157Z,1023.53
2017-03-15T06:07:32.420Z,1023.6
2017-03-15T06:08:33.726Z,1023.6
2017-03-15T06:09:34.892Z,1023.63
2017-03-15T06:10:36.145Z,1023.62
2017-03-15T06:11:37.379Z,1023.63
2017-03-15T06:12:38.631Z,1023.6
2017-03-15T06:13:39.895Z,1023.61
2017-03-15T06:14:41.136Z,1023.61
2017-03-15T06:15:42.388Z,1023.63
2017-03-15T06:16:43.632Z,1023.64
2017-03-15T06:17:44.873Z,1023.68
2017-03-15T06:18:46.111Z,1023.65
2017-03-15T06:19:47.347Z,1023.71
2017-03-15T06:20:48.601Z,1023.71
2017-03-15T06:21:49.841Z,1023.67
2017-03-15T06:22:51.086Z,1023.7
2017-03-15T06:23:52.335Z,1023.72
2017-03-15T06:24:53.576Z,1023.7
2017-03-15T06:25:55.029Z,1023.7
2017-03-15T06:26:56.353Z,1023.71
2017-03-15T06:27:57.524Z,1023.71
2017-03-15T06:28:58.782Z,1023.74
2017-03-15T06:30:00.064Z,1023.71
2017-03-15T06:31:01.302Z,1023.69
2017-03-15T06:32:02.562Z,1023.7
2017-03-15T06:33:03.788Z,1023.71
2017-03-15T06:34:05.039Z,1023.74
2017-03-15T06:35:06.317Z,1023.74
2017-03-15T06:36:07.581Z,1023.76
2017-03-15T06:37:08.811Z,1023.77
2017-03-15T06:38:10.078Z,1023.75
2017-03-15T06:39:11.303Z,1023.8
2017-03-15T06:40:12.556Z,1023.83
2017-03-15T06:41:13.814Z,1023.84
2017-03-15T06:42:15.047Z,1023.82
2017-03-15T06:43:16.349Z,1023.77
2017-03-15T06:44:17.608Z,1023.78
2017-03-15T06:45:19.119Z,1023.71
2017-03-15T06:46:20.407Z,1023.66
2017-03-15T06:47:21.725Z,1023.68
2017-03-15T06:48:22.974Z,1023.75
2017-03-15T06:49:24.213Z,1023.79
2017-03-15T06:50:25.497Z,1023.81
2017-03-15T06:51:26.741Z,1023.79
2017-03-15T06:52:27.994Z,1023.77
2017-03-15T06:53:29.235Z,1023.79
2017-03-15T06:54:30.489Z,1023.78
2017-03-15T06:55:31.749Z,1023.83
2017-03-15T06:56:32.980Z,1023.85
2017-03-15T06:57:34.228Z,1023.83
2017-03-15T06:58:35.465Z,1023.8
2017-03-15T06:59:36.748Z,1023.77
2017-03-15T07:00:38.038Z,1023.73
2017-03-15T07:01:39.264Z,1023.65
2017-03-15T07:02:40.506Z,1023.62
2017-03-15T07:03:41.755Z,1023.68
2017-03-15T07:04:42.992Z,1023.66
2017-03-15T07:05:44.255Z,1023.67
2017-03-15T07:06:45.513Z,1023.62
2017-03-15T07:07:46.741Z,1023.61
2017-03-15T07:08:47.979Z,1023.59
2017-03-15T07:09:49.220Z,1023.59
2017-03-15T07:10:50.457Z,1023.58
2017-03-15T07:11:51.705Z,1023.67
2017-03-15T07:12:52.946Z,1023.72
2017-03-15T07:13:54.185Z,1023.72
2017-03-15T07:14:55.423Z,1023.72
2017-03-15T07:15:56.674Z,1023.71
2017-03-15T07:16:57.903Z,1023.7
2017-03-15T07:17:59.150Z,1023.74
2017-03-15T07:19:00.399Z,1023.76
2017-03-15T07:20:01.704Z,1023.76
2017-03-15T07:21:02.949Z,1023.79
2017-03-15T07:22:04.256Z,1023.78
2017-03-15T07:23:05.486Z,1023.79
2017-03-15T07:24:06.752Z,1023.77
2017-03-15T07:25:08.090Z,1023.73
2017-03-15T07:26:09.245Z,1023.7
2017-03-15T07:27:10.545Z,1023.7
2017-03-15T07:28:11.791Z,1023.67
2017-03-15T07:29:13.037Z,1023.68
2017-03-15T07:30:14.308Z,1023.66
2017-03-15T07:31:15.541Z,1023.69
2017-03-15T07:32:16.845Z,1023.71
2017-03-15T07:33:18.101Z,1023.76
2017-03-15T07:34:19.352Z,1023.78
2017-03-15T07:35:20.587Z,1023.84
2017-03-15T07:36:21.836Z,1023.82
2017-03-15T07:37:23.112Z,1023.81
2017-03-15T07:38:24.406Z,1023.81
2017-03-15T07:39:25.629Z,1023.75
2017-03-15T07:40:26.874Z,1023.73
2017-03-15T07:41:28.191Z,1023.73
2017-03-15T07:42:29.410Z,1023.75
2017-03-15T07:43:30.696Z,1023.73
2017-03-15T07:44:32.033Z,1023.77
2017-03-15T07:45:33.308Z,1023.76
2017-03-15T07:46:34.526Z,1023.8
2017-03-15T07:47:35.780Z,1023.77
2017-03-15T07:48:37.139Z,1023.76
2017-03-15T07:49:38.399Z,1023.76
2017-03-15T07:50:39.801Z,1023.79
2017-03-15T07:51:40.932Z,1023.86
2017-03-15T07:52:42.201Z,1023.86
2017-03-15T07:53:43.430Z,1023.9
2017-03-15T07:54:44.693Z,1023.93
2017-03-15T07:55:45.941Z,1023.91
2017-03-15T07:56:47.185Z,1023.91
2017-03-15T07:57:48.458Z,1023.99
2017-03-15T07:58:49.717Z,1024.02
2017-03-15T07:59:50.948Z,1023.92
2017-03-15T08:00:52.186Z,1023.94
2017-03-15T08:01:53.476Z,1023.94
2017-03-15T08:02:54.783Z,1023.95
2017-03-15T08:03:56.111Z,1023.99
2017-03-15T08:04:57.323Z,1024.02
2017-03-15T08:05:58.562Z,1024.01
2017-03-15T08:06:59.805Z,1024.12
2017-03-15T08:08:01.054Z,1024.17
2017-03-15T08:09:02.326Z,1024.13
2017-03-15T08:10:03.574Z,1024.12
2017-03-15T08:11:04.876Z,1024.04
2017-03-15T08:12:06.181Z,1024.02
2017-03-15T08:13:07.431Z,1023.97
2017-03-15T08:14:08.965Z,1023.98
2017-03-15T08:15:10.217Z,1023.96
2017-03-15T08:16:11.453Z,1024.01
2017-03-15T08:17:12.716Z,1024.04
2017-03-15T08:18:13.954Z,1024.06
2017-03-15T08:19:15.241Z,1024.06
2017-03-15T08:20:16.507Z,1024.05
2017-03-15T08:21:17.860Z,1024.05
2017-03-15T08:22:19.053Z,1024.07
2017-03-15T08:23:20.298Z,1024.09
2017-03-15T08:24:21.556Z,1024.06
2017-03-15T08:25:22.806Z,1024.03
2017-03-15T08:26:24.143Z,1024.09
2017-03-15T08:27:25.324Z,1024.06
2017-03-15T08:28:26.589Z,1024.09
2017-03-15T08:29:27.857Z,1024.07
2017-03-15T08:30:29.101Z,1024.12
2017-03-15T08:31:30.362Z,1024.1
2017-03-15T08:32:31.606Z,1024.11
2017-03-15T08:33:32.852Z,1024.11
2017-03-15T08:34:34.117Z,1024.06
2017-03-15T08:35:35.377Z,1024.06
2017-03-15T08:36:36.626Z,1024.1
2017-03-15T08:37:37.903Z,1024.07
2017-03-15T08:38:39.197Z,1024.11
2017-03-15T08:39:40.485Z,1024.17
2017-03-15T08:40:41.845Z,1024.17
2017-03-15T08:41:43.094Z,1024.12
2017-03-15T08:42:44.357Z,1024.15
2017-03-15T08:43:45.616Z,1024.13
2017-03-15T08:44:46.845Z,1024.16
2017-03-15T08:45:48.103Z,1024.18
2017-03-15T08:46:49.378Z,1024.2
2017-03-15T08:47:50.647Z,1024.2
2017-03-15T08:48:51.907Z,1024.23
2017-03-15T08:49:53.179Z,1024.25
2017-03-15T08:50:54.400Z,1024.26
2017-03-15T08:51:55.645Z,1024.23
2017-03-15T08:52:56.903Z,1024.22
2017-03-15T08:53:58.163Z,1024.21
2017-03-15T08:54:59.401Z,1024.25
2017-03-15T08:56:00.651Z,1024.23
2017-03-15T08:57:01.905Z,1024.3
2017-03-15T08:58:03.186Z,1024.24
2017-03-15T08:59:04.458Z,1024.32
2017-03-15T09:00:05.782Z,1024.28
2017-03-15T09:01:07.019Z,1024.27
2017-03-15T09:02:08.297Z,1024.29
2017-03-15T09:03:09.518Z,1024.35
2017-03-15T09:04:10.765Z,1024.34
2017-03-15T09:05:12.005Z,1024.35
2017-03-15T09:06:13.259Z,1024.39
2017-03-15T09:07:14.583Z,1024.42
2017-03-15T09:08:15.913Z,1024.36
2017-03-15T09:09:17.161Z,1024.42
2017-03-15T09:10:18.419Z,1024.41
2017-03-15T09:11:19.677Z,1024.44
2017-03-15T09:12:20.952Z,1024.41
2017-03-15T09:13:22.179Z,1024.43
2017-03-15T09:14:23.437Z,1024.42
2017-03-15T09:15:24.685Z,1024.44
2017-03-15T09:16:25.959Z,1024.44
2017-03-15T09:17:27.281Z,1024.49
2017-03-15T09:18:28.657Z,1024.49
2017-03-15T09:19:29.904Z,1024.45
2017-03-15T09:20:31.150Z,1024.45
2017-03-15T09:21:32.404Z,1024.44
2017-03-15T09:22:33.649Z,1024.45
2017-03-15T09:23:34.950Z,1024.43
2017-03-15T09:24:36.205Z,1024.46
2017-03-15T09:25:37.438Z,1024.4
2017-03-15T09:26:38.736Z,1024.37
2017-03-15T09:27:40.014Z,1024.37
2017-03-15T09:28:41.265Z,1024.38
2017-03-15T09:29:42.529Z,1024.41
2017-03-15T09:30:43.772Z,1024.38
2017-03-15T09:31:45.070Z,1024.42
2017-03-15T09:32:46.325Z,1024.43
2017-03-15T09:33:47.592Z,1024.44
2017-03-15T09:34:48.830Z,1024.42
2017-03-15T09:35:50.123Z,1024.42
2017-03-15T09:36:51.371Z,1024.44
2017-03-15T09:37:52.683Z,1024.47
2017-03-15T09:38:53.925Z,1024.5
2017-03-15T09:39:55.173Z,1024.48
2017-03-15T09:40:56.431Z,1024.48
2017-03-15T09:41:57.683Z,1024.43
2017-03-15T09:42:58.928Z,1024.44
2017-03-15T09:44:00.275Z,1024.42
2017-03-15T09:45:01.518Z,1024.55
2017-03-15T09:46:02.763Z,1024.55
2017-03-15T09:47:04.010Z,1024.56
2017-03-15T09:48:05.354Z,1024.55
2017-03-15T09:49:06.737Z,1024.56
2017-03-15T09:50:08.015Z,1024.61
2017-03-15T09:51:09.269Z,1024.53
2017-03-15T09:52:10.512Z,1024.55
2017-03-15T09:53:11.772Z,1024.53
2017-03-15T09:54:13.031Z,1024.52
2017-03-15T09:55:14.353Z,1024.55
2017-03-15T09:56:15.557Z,1024.57
2017-03-15T09:57:16.787Z,1024.51
2017-03-15T09:58:18.018Z,1024.55
2017-03-15T09:59:19.272Z,1024.51
2017-03-15T10:00:20.556Z,1024.51
2017-03-15T10:01:21.782Z,1024.56
2017-03-15T10:02:23.104Z,1024.55
2017-03-15T10:03:24.353Z,1024.53
2017-03-15T10:04:25.614Z,1024.51
2017-03-15T10:05:26.863Z,1024.52
2017-03-15T10:06:28.108Z,1024.5
2017-03-15T10:07:29.569Z,1024.48
2017-03-15T10:08:30.839Z,1024.54
2017-03-15T10:09:32.093Z,1024.59
2017-03-15T10:10:33.344Z,1024.56
2017-03-15T10:11:34.607Z,1024.58
2017-03-15T10:12:35.855Z,1024.61
2017-03-15T10:13:37.105Z,1024.64
2017-03-15T10:14:38.450Z,1024.64
2017-03-15T10:15:39.696Z,1024.7
2017-03-15T10:16:40.958Z,1024.72
2017-03-15T10:17:42.250Z,1024.69
2017-03-15T10:18:43.513Z,1024.64
2017-03-15T10:19:44.863Z,1024.67
2017-03-15T10:20:46.102Z,1024.7
2017-03-15T10:21:47.355Z,1024.79
2017-03-15T10:22:48.632Z,1024.85
2017-03-15T10:23:49.916Z,1024.82
2017-03-15T10:24:51.145Z,1024.86
2017-03-15T10:25:52.401Z,1024.81
2017-03-15T10:26:53.654Z,1024.83
2017-03-15T10:27:54.925Z,1024.78
2017-03-15T10:28:56.197Z,1024.79
2017-03-15T10:29:57.473Z,1024.83
2017-03-15T10:30:58.745Z,1024.79
2017-03-15T10:31:59.999Z,1024.75
2017-03-15T10:33:01.257Z,1024.77
2017-03-15T10:34:02.527Z,1024.75
2017-03-15T10:35:03.796Z,1024.71
2017-03-15T10:36:05.068Z,1024.67
2017-03-15T10:37:06.296Z,1024.74
2017-03-15T10:38:07.595Z,1024.74
2017-03-15T10:39:08.894Z,1024.76
2017-03-15T10:40:10.155Z,1024.73
2017-03-15T10:41:11.414Z,1024.75
2017-03-15T10:42:12.667Z,1024.71
2017-03-15T10:43:13.912Z,1024.69
2017-03-15T10:44:15.159Z,1024.64
2017-03-15T10:45:16.453Z,1024.63
2017-03-15T10:46:17.826Z,1024.64
2017-03-15T10:47:19.037Z,1024.64
2017-03-15T10:48:20.287Z,1024.69
2017-03-15T10:49:21.597Z,1024.71
2017-03-15T10:50:22.855Z,1024.66
2017-03-15T10:51:24.207Z,1024.68
2017-03-15T10:52:25.483Z,1024.67
2017-03-15T10:53:26.745Z,1024.71
2017-03-15T10:54:27.983Z,1024.66
2017-03-15T10:55:29.231Z,1024.67
2017-03-15T10:56:30.564Z,1024.67
2017-03-15T10:57:31.814Z,1024.68
2017-03-15T10:58:33.087Z,1024.7
2017-03-15T10:59:34.347Z,1024.67
2017-03-15T11:00:35.576Z,1024.75
2017-03-15T11:01:36.831Z,1024.79
2017-03-15T11:02:38.076Z,1024.78
2017-03-15T11:03:39.366Z,1024.79
2017-03-15T11:04:40.630Z,1024.79
2017-03-15T11:05:41.907Z,1024.79
2017-03-15T11:06:43.186Z,1024.78
2017-03-15T11:07:44.435Z,1024.76
2017-03-15T11:08:45.705Z,1024.72
2017-03-15T11:09:46.937Z,1024.74
2017-03-15T11:10:48.212Z,1024.77
2017-03-15T11:11:49.466Z,1024.73
2017-03-15T11:12:50.698Z,1024.73
2017-03-15T11:13:51.954Z,1024.74
2017-03-15T11:14:53.268Z,1024.77
2017-03-15T11:15:54.585Z,1024.75
2017-03-15T11:16:55.924Z,1024.76
2017-03-15T11:17:57.175Z,1024.73
2017-03-15T11:18:58.424Z,1024.73
2017-03-15T11:19:59.670Z,1024.76
2017-03-15T11:21:00.940Z,1024.69
2017-03-15T11:22:02.263Z,1024.74
2017-03-15T11:23:03.573Z,1024.72
2017-03-15T11:24:04.801Z,1024.71
2017-03-15T11:25:06.045Z,1024.73
2017-03-15T11:26:07.444Z,1024.75
2017-03-15T11:27:08.686Z,1024.71
2017-03-15T11:28:09.942Z,1024.71
2017-03-15T11:29:11.175Z,1024.7
2017-03-15T11:30:12.423Z,1024.7
2017-03-15T11:31:13.696Z,1024.69
2017-03-15T11:32:14.928Z,1024.67
2017-03-15T11:33:16.171Z,1024.64
2017-03-15T11:34:17.430Z,1024.63
2017-03-15T11:35:18.695Z,1024.6
2017-03-15T11:36:19.970Z,1024.64
2017-03-15T11:37:21.195Z,1024.68
2017-03-15T11:38:22.444Z,1024.66
2017-03-15T11:39:23.745Z,1024.68
2017-03-15T11:40:25.006Z,1024.71
2017-03-15T11:41:26.261Z,1024.68
2017-03-15T11:42:27.511Z,1024.71
2017-03-15T11:43:28.821Z,1024.64
2017-03-15T11:44:30.076Z,1024.69
2017-03-15T11:45:31.331Z,1024.63
2017-03-15T11:46:32.677Z,1024.69
2017-03-15T11:47:33.946Z,1024.68
2017-03-15T11:48:35.165Z,1024.64
2017-03-15T11:49:36.414Z,1024.68
2017-03-15T11:50:37.664Z,1024.65
2017-03-15T11:51:38.924Z,1024.63
2017-03-15T11:52:40.173Z,1024.63
2017-03-15T11:53:41.423Z,1024.61
2017-03-15T11:54:42.694Z,1024.6
2017-03-15T11:55:43.918Z,1024.62
2017-03-15T11:56:45.210Z,1024.58
2017-03-15T11:57:46.431Z,1024.6
2017-03-15T11:58:47.685Z,1024.57
2017-03-15T11:59:48.980Z,1024.57
2017-03-15T12:00:50.238Z,1024.6
2017-03-15T12:01:51.484Z,1024.55
2017-03-15T12:02:52.728Z,1024.55
2017-03-15T12:03:53.975Z,1024.54
2017-03-15T12:04:55.224Z,1024.52
2017-03-15T12:05:56.496Z,1024.59
2017-03-15T12:06:57.797Z,1024.54
2017-03-15T12:07:58.970Z,1024.54
2017-03-15T12:09:00.245Z,1024.55
2017-03-15T12:10:01.484Z,1024.54
2017-03-15T12:11:02.741Z,1024.5
2017-03-15T12:12:03.946Z,1024.47
2017-03-15T12:13:05.199Z,1024.51
2017-03-15T12:14:06.475Z,1024.51
2017-03-15T12:15:07.702Z,1024.51
2017-03-15T12:16:08.944Z,1024.49
2017-03-15T12:17:10.183Z,1024.49
2017-03-15T12:18:11.469Z,1024.38
2017-03-15T12:19:12.747Z,1024.39
2017-03-15T12:20:13.976Z,1024.41
2017-03-15T12:21:15.248Z,1024.44
2017-03-15T12:22:16.487Z,1024.5
2017-03-15T12:23:17.728Z,1024.47